Time;durP1;ratioP1;P1;durP2;ratioP2;P2;SDS_P1;SDS_P2;PMS_P1;PMS_P2;Temp;Humidity;BMP_temperature;BMP_pressure;BME280_temperature;BME280_humidity;BME280_pressure;Samples;Min_cycle;Max_cycle;Signal;HPM_P1;HPM_P2
2021/06/19 00:02:05;;;;;;;2.25;2.13;;;22.10;81.50;;;;;;6152351;23;20448;-92
2021/06/19 00:04:31;;;;;;;3.60;2.25;;;22.00;81.60;;;;;;6152291;23;20001;-92
2021/06/19 00:07:02;;;;;;;2.53;2.33;;;22.10;81.40;;;;;;6152438;23;20012;-92
2021/06/19 00:09:28;;;;;;;2.15;2.00;;;22.00;81.60;;;;;;6152521;23;20055;-92
2021/06/19 00:11:53;;;;;;;2.72;2.05;;;22.00;81.60;;;;;;6152105;23;20409;-92
2021/06/19 00:14:20;;;;;;;1.92;1.83;;;22.00;81.60;;;;;;6152259;23;20037;-92
2021/06/19 00:16:46;;;;;;;2.42;2.22;;;21.90;81.50;;;;;;6152331;23;20001;-92
2021/06/19 00:19:12;;;;;;;2.38;2.17;;;21.90;81.70;;;;;;6152230;23;20005;-92
2021/06/19 00:21:41;;;;;;;2.95;2.65;;;21.80;81.80;;;;;;6152162;23;20047;-92
2021/06/19 00:24:07;;;;;;;2.33;2.13;;;21.80;81.80;;;;;;6152171;23;20051;-92
2021/06/19 00:26:33;;;;;;;2.40;2.20;;;21.80;82.10;;;;;;6152265;23;20006;-92
2021/06/19 00:28:59;;;;;;;2.25;2.13;;;21.70;82.30;;;;;;6152210;23;20005;-92
2021/06/19 00:31:24;;;;;;;2.38;2.03;;;21.70;82.20;;;;;;6152223;23;20021;-92
2021/06/19 00:33:50;;;;;;;2.58;2.38;;;21.70;82.10;;;;;;6151879;23;20010;-92
2021/06/19 00:36:16;;;;;;;2.85;2.45;;;21.70;82.40;;;;;;6152682;23;20009;-92
2021/06/19 00:38:41;;;;;;;2.60;2.40;;;21.70;82.40;;;;;;6151769;23;20029;-92
2021/06/19 00:41:07;;;;;;;6.25;2.70;;;21.70;82.40;;;;;;6152072;23;20005;-92
2021/06/19 00:43:32;;;;;;;2.63;2.42;;;21.70;82.50;;;;;;6151992;23;20006;-92
2021/06/19 00:45:59;;;;;;;2.63;2.30;;;21.70;82.50;;;;;;6151608;23;20009;-92
2021/06/19 00:48:26;;;;;;;2.20;2.10;;;21.70;82.30;;;;;;6151936;23;20356;-93
2021/06/19 00:50:52;;;;;;;2.38;2.17;;;21.70;82.40;;;;;;6153268;23;20001;-92
2021/06/19 00:53:18;;;;;;;1.83;1.73;;;21.70;82.80;;;;;;6153353;23;20002;-92
2021/06/19 00:55:43;;;;;;;2.85;2.50;;;21.60;82.40;;;;;;6152032;23;20093;-92
2021/06/19 00:58:09;;;;;;;2.10;1.90;;;21.60;82.50;;;;;;6151787;23;20017;-92
2021/06/19 01:00:35;;;;;;;3.15;2.35;;;21.60;82.60;;;;;;6151906;23;20329;-92
2021/06/19 01:03:01;;;;;;;2.75;2.38;;;21.50;82.60;;;;;;6151850;23;20012;-92
2021/06/19 01:05:28;;;;;;;2.75;2.55;;;21.50;82.90;;;;;;6152565;23;20421;-92
2021/06/19 01:07:55;;;;;;;3.13;2.60;;;21.50;83.00;;;;;;6150769;23;20006;-93
2021/06/19 01:10:21;;;;;;;2.60;2.33;;;21.50;83.00;;;;;;6151859;23;20080;-92
2021/06/19 01:12:47;;;;;;;2.50;2.30;;;21.50;82.90;;;;;;6153424;23;20028;-92
2021/06/19 01:15:14;;;;;;;3.50;2.80;;;21.60;83.00;;;;;;6151948;23;20009;-92
2021/06/19 01:17:39;;;;;;;3.15;2.53;;;21.60;82.80;;;;;;6151841;23;20002;-92
2021/06/19 01:20:08;;;;;;;2.10;2.00;;;21.60;82.80;;;;;;6152081;23;20142;-92
2021/06/19 01:22:35;;;;;;;2.67;2.13;;;21.60;82.80;;;;;;6151890;23;20080;-92
2021/06/19 01:25:01;;;;;;;2.47;2.28;;;21.60;82.80;;;;;;6151652;23;20077;-92
2021/06/19 01:27:31;;;;;;;2.50;2.30;;;21.60;83.00;;;;;;6151921;23;19998;-92
2021/06/19 01:29:58;;;;;;;2.75;2.20;;;21.60;83.00;;;;;;6151894;23;20047;-92
2021/06/19 01:32:27;;;;;;;2.70;2.50;;;21.60;83.00;;;;;;6151899;23;20452;-92
2021/06/19 01:34:53;;;;;;;2.30;2.05;;;21.60;83.00;;;;;;6152957;23;20447;-92
2021/06/19 01:37:18;;;;;;;2.45;2.25;;;21.60;82.90;;;;;;6152458;23;19998;-92
2021/06/19 01:39:44;;;;;;;3.35;2.17;;;21.60;82.90;;;;;;6156943;23;20021;-92
2021/06/19 01:42:10;;;;;;;2.00;1.85;;;21.60;82.90;;;;;;6156740;23;20047;-92
2021/06/19 01:44:36;;;;;;;2.30;2.10;;;21.60;82.80;;;;;;6156815;22;20033;-92
2021/06/19 01:47:02;;;;;;;3.13;2.50;;;21.50;83.00;;;;;;6156720;23;20050;-91
2021/06/19 01:49:35;;;;;;;2.42;2.22;;;21.50;83.10;;;;;;6156656;23;20012;-92
2021/06/19 01:52:02;;;;;;;3.05;2.40;;;21.60;83.10;;;;;;6157026;23;20418;-92
2021/06/19 01:54:37;;;;;;;3.22;2.45;;;21.60;83.00;;;;;;6182667;23;20002;-92
2021/06/19 01:57:07;;;;;;;2.72;2.45;;;21.60;82.90;;;;;;6156700;23;20324;-93
2021/06/19 01:59:33;;;;;;;2.45;2.25;;;21.60;83.00;;;;;;6156456;23;20062;-91
2021/06/19 02:02:00;;;;;;;2.42;2.22;;;21.60;83.00;;;;;;6156825;23;20012;-92
2021/06/19 02:04:26;;;;;;;2.50;2.30;;;21.60;82.80;;;;;;6156430;23;20008;-91
2021/06/19 02:06:53;;;;;;;3.00;2.35;;;21.60;82.70;;;;;;6156820;22;20001;-92
2021/06/19 02:09:19;;;;;;;3.17;2.22;;;21.60;82.70;;;;;;6156564;23;20084;-92
2021/06/19 02:11:45;;;;;;;2.63;2.20;;;21.60;82.60;;;;;;6182885;22;20037;-92
2021/06/19 02:14:16;;;;;;;2.20;2.00;;;21.70;82.60;;;;;;6182736;23;20005;-92
2021/06/19 02:16:43;;;;;;;4.85;2.72;;;21.70;82.50;;;;;;6156500;23;20002;-92
2021/06/19 02:19:09;;;;;;;3.83;2.45;;;21.60;82.50;;;;;;6157545;23;20009;-92
2021/06/19 02:21:35;;;;;;;3.08;2.33;;;21.60;82.50;;;;;;6157986;23;20001;-92
2021/06/19 02:24:01;;;;;;;2.70;2.50;;;21.60;82.50;;;;;;6157237;23;20034;-92
2021/06/19 02:26:27;;;;;;;2.80;2.60;;;21.60;82.60;;;;;;6157414;23;20038;-92
2021/06/19 02:28:53;;;;;;;2.28;2.08;;;21.70;82.60;;;;;;6157477;23;20443;-92
2021/06/19 02:31:20;;;;;;;2.50;2.30;;;21.70;82.40;;;;;;6157644;23;20001;-92
2021/06/19 02:33:47;;;;;;;2.58;2.38;;;21.70;82.40;;;;;;6157556;23;20020;-92
2021/06/19 02:36:14;;;;;;;4.65;2.63;;;21.70;82.90;;;;;;6157630;22;20032;-92
2021/06/19 02:38:39;;;;;;;2.58;2.38;;;21.70;82.20;;;;;;6183367;23;20013;-92
2021/06/19 02:41:05;;;;;;;2.92;2.47;;;21.70;82.30;;;;;;6183616;23;20076;-92
2021/06/19 02:43:31;;;;;;;2.47;2.28;;;21.60;82.30;;;;;;6157566;23;20005;-92
2021/06/19 02:45:59;;;;;;;2.88;2.50;;;21.60;82.30;;;;;;6157966;23;20001;-92
2021/06/19 02:48:26;;;;;;;2.45;2.25;;;21.70;82.40;;;;;;6157818;23;20017;-92
2021/06/19 02:50:52;;;;;;;3.30;2.55;;;21.70;82.40;;;;;;6157562;23;20412;-92
2021/06/19 02:53:18;;;;;;;2.38;2.17;;;21.70;82.40;;;;;;6157403;23;20008;-92
2021/06/19 02:55:44;;;;;;;2.40;2.22;;;21.70;82.20;;;;;;6183847;23;19998;-92
2021/06/19 02:58:12;;;;;;;3.17;2.70;;;21.80;82.20;;;;;;6157975;23;20016;-92
2021/06/19 03:00:39;;;;;;;5.05;2.45;;;21.80;82.00;;;;;;6157844;23;20080;-92
2021/06/19 03:03:06;;;;;;;2.53;2.33;;;21.90;81.80;;;;;;6157496;23;20024;-92
2021/06/19 03:05:32;;;;;;;2.88;2.20;;;21.90;81.60;;;;;;6157572;22;20002;-92
2021/06/19 03:08:00;;;;;;;2.80;2.60;;;21.90;81.50;;;;;;6157307;23;20032;-91
2021/06/19 03:10:34;;;;;;;2.33;2.13;;;21.90;81.50;;;;;;6157239;23;20054;-92
2021/06/19 03:13:00;;;;;;;3.25;2.60;;;21.80;81.40;;;;;;6157521;22;20007;-92
2021/06/19 03:15:26;;;;;;;6.97;2.47;;;21.80;81.50;;;;;;6157208;23;19997;-92
2021/06/19 03:17:53;;;;;;;3.42;2.70;;;21.70;81.60;;;;;;6183566;23;20347;-92
2021/06/19 03:20:19;;;;;;;2.63;2.22;;;21.70;81.90;;;;;;6157658;23;20320;-92
2021/06/19 03:22:58;;;;;;;2.35;2.15;;;21.80;81.80;;;;;;6158829;22;20408;-92
2021/06/19 03:25:34;;;;;;;2.50;2.30;;;21.80;81.70;;;;;;6157952;22;20009;-92
2021/06/19 03:28:01;;;;;;;3.80;2.50;;;21.90;81.70;;;;;;6157577;22;20002;-92
2021/06/19 03:30:32;;;;;;;3.45;2.17;;;21.90;81.60;;;;;;6157043;22;20001;-92
2021/06/19 03:33:01;;;;;;;2.50;1.92;;;21.90;81.60;;;;;;6183463;23;20084;-92
2021/06/19 03:35:27;;;;;;;3.72;2.50;;;22.00;81.80;;;;;;6157289;23;20050;-92
2021/06/19 03:37:54;;;;;;;5.03;2.33;;;22.00;81.80;;;;;;6157799;23;20017;-92
2021/06/19 03:40:20;;;;;;;2.38;2.17;;;22.10;81.70;;;;;;6157354;22;20016;-92
2021/06/19 03:42:49;;;;;;;2.35;2.20;;;22.20;81.50;;;;;;6184263;23;20001;-91
2021/06/19 03:45:15;;;;;;;2.58;2.38;;;22.30;81.30;;;;;;6158527;23;20001;-92
2021/06/19 03:47:42;;;;;;;2.60;2.40;;;22.40;81.00;;;;;;6158011;23;20013;-92
2021/06/19 03:50:14;;;;;;;2.88;2.35;;;22.60;80.70;;;;;;6183475;23;19994;-92
2021/06/19 03:52:40;;;;;;;2.63;2.30;;;22.60;80.30;;;;;;6157324;23;20008;-92
2021/06/19 03:55:08;;;;;;;2.50;2.25;;;22.70;80.10;;;;;;6157484;23;20001;-92
2021/06/19 03:57:36;;;;;;;2.42;2.22;;;22.80;79.80;;;;;;6183676;23;20001;-92
2021/06/19 04:00:10;;;;;;;2.60;2.40;;;22.90;79.60;;;;;;6157244;22;20005;-92
2021/06/19 04:02:36;;;;;;;5.40;3.10;;;22.90;79.30;;;;;;6157664;22;20005;-92
2021/06/19 04:05:02;;;;;;;3.35;2.70;;;23.00;78.90;;;;;;6157201;23;20008;-92
2021/06/19 04:07:28;;;;;;;4.53;3.00;;;23.10;78.90;;;;;;6157767;23;19998;-92
2021/06/19 04:09:54;;;;;;;3.33;2.60;;;23.20;78.10;;;;;;6156854;23;20052;-92
2021/06/19 04:12:22;;;;;;;3.40;2.80;;;23.20;77.90;;;;;;6157197;23;20009;-92
2021/06/19 04:14:49;;;;;;;2.38;2.28;;;23.30;77.40;;;;;;6157190;23;20092;-92
2021/06/19 04:17:15;;;;;;;2.70;2.50;;;23.40;77.50;;;;;;6157378;23;20001;-91
2021/06/19 04:19:43;;;;;;;2.90;2.70;;;23.50;77.10;;;;;;6157204;22;20062;-92
2021/06/19 04:22:10;;;;;;;3.22;2.92;;;23.60;76.90;;;;;;6157340;23;20009;-92
2021/06/19 04:24:37;;;;;;;3.20;2.90;;;23.70;76.20;;;;;;6183317;23;19997;-92
2021/06/19 04:27:04;;;;;;;2.67;2.30;;;23.70;75.90;;;;;;6157291;23;20032;-92
2021/06/19 04:29:31;;;;;;;4.25;3.08;;;23.80;75.90;;;;;;6157373;22;20005;-91
2021/06/19 04:31:58;;;;;;;2.75;2.15;;;23.80;75.80;;;;;;6157241;23;20012;-92
2021/06/19 04:34:24;;;;;;;2.97;2.60;;;23.90;75.70;;;;;;6157056;23;20040;-92
2021/06/19 04:36:51;;;;;;;3.15;2.85;;;23.90;75.40;;;;;;6157513;22;20012;-93
2021/06/19 04:39:18;;;;;;;4.85;2.97;;;23.90;75.20;;;;;;6156497;23;20066;-92
2021/06/19 04:41:51;;;;;;;3.45;3.15;;;23.90;75.10;;;;;;6157114;22;20008;-92
2021/06/19 04:44:42;;;;;;;3.95;2.92;;;23.80;75.20;;;;;;6156670;23;20012;-92
2021/06/19 04:47:03;;;;;;;5.03;3.35;;;23.80;75.30;;;;;;6181701;23;20080;-92
2021/06/19 04:49:28;;;;;;;3.53;2.80;;;23.90;75.40;;;;;;6157734;23;20028;-92
2021/06/19 04:51:54;;;;;;;3.58;3.28;;;23.90;75.20;;;;;;6157230;23;20037;-92
2021/06/19 04:54:20;;;;;;;3.40;3.10;;;23.90;74.90;;;;;;6182950;23;20474;-92
2021/06/19 04:56:46;;;;;;;3.65;2.75;;;24.00;75.00;;;;;;6156922;23;20024;-92
2021/06/19 04:59:11;;;;;;;4.72;2.85;;;23.90;75.00;;;;;;6156874;23;20036;-92
2021/06/19 05:01:37;;;;;;;3.05;2.80;;;24.00;75.00;;;;;;6156791;23;20447;-92
2021/06/19 05:04:03;;;;;;;3.28;3.05;;;24.00;75.00;;;;;;6157046;23;20002;-92
2021/06/19 05:06:29;;;;;;;3.83;3.42;;;24.00;74.80;;;;;;6157628;23;20069;-92
2021/06/19 05:08:56;;;;;;;3.63;3.33;;;24.00;74.80;;;;;;6157034;23;20012;-92
2021/06/19 05:11:21;;;;;;;3.08;2.72;;;24.10;74.80;;;;;;6156791;23;20008;-92
2021/06/19 05:13:47;;;;;;;4.32;2.90;;;24.10;74.70;;;;;;6156563;23;20001;-92
2021/06/19 05:16:14;;;;;;;3.33;2.83;;;24.20;74.70;;;;;;6156660;23;19994;-92
2021/06/19 05:18:40;;;;;;;3.13;2.85;;;24.20;74.70;;;;;;6157016;22;20020;-92
2021/06/19 05:21:06;;;;;;;3.65;2.90;;;24.20;74.70;;;;;;6182774;23;20038;-92
2021/06/19 05:23:32;;;;;;;4.13;3.63;;;24.20;74.60;;;;;;6156667;23;20001;-92
2021/06/19 05:25:58;;;;;;;5.13;3.53;;;24.30;74.60;;;;;;6156569;23;20011;-92
2021/06/19 05:28:24;;;;;;;4.78;3.40;;;24.30;74.40;;;;;;6183022;22;20022;-92
2021/06/19 05:30:50;;;;;;;3.53;3.22;;;24.40;74.40;;;;;;6156711;23;20001;-92
2021/06/19 05:33:16;;;;;;;5.20;3.20;;;24.40;74.40;;;;;;6156584;23;20084;-92
2021/06/19 05:35:42;;;;;;;8.65;3.22;;;24.40;74.00;;;;;;6157012;23;20002;-92
2021/06/19 05:38:08;;;;;;;5.70;4.93;;;24.50;73.90;;;;;;6156169;23;20024;-91
2021/06/19 05:40:34;;;;;;;4.43;4.03;;;24.50;73.70;;;;;;6156371;23;19998;-92
2021/06/19 05:42:59;;;;;;;5.15;3.28;;;24.50;73.60;;;;;;6157607;23;20001;-92
2021/06/19 05:45:25;;;;;;;4.28;3.58;;;24.60;73.70;;;;;;6156829;23;20024;-92
2021/06/19 05:47:51;;;;;;;6.70;3.20;;;24.60;73.60;;;;;;6157284;23;20056;-92
2021/06/19 05:50:17;;;;;;;3.85;3.20;;;24.60;73.60;;;;;;6156171;23;20013;-92
2021/06/19 05:52:42;;;;;;;6.68;3.33;;;24.60;73.50;;;;;;6156114;23;20005;-92
2021/06/19 05:55:09;;;;;;;3.40;3.10;;;24.70;73.60;;;;;;6156196;23;20351;-92
2021/06/19 05:57:35;;;;;;;3.75;3.45;;;24.70;73.50;;;;;;6156143;22;20009;-92
2021/06/19 06:00:01;;;;;;;3.78;3.30;;;24.70;73.40;;;;;;6182363;22;20013;-92
2021/06/19 06:02:27;;;;;;;3.30;3.00;;;24.80;73.30;;;;;;6156617;23;20001;-93
2021/06/19 06:04:52;;;;;;;5.47;4.03;;;24.90;73.40;;;;;;6156566;23;20005;-93
2021/06/19 06:07:18;;;;;;;3.72;3.00;;;24.90;73.20;;;;;;6156969;23;20005;-93
2021/06/19 06:09:44;;;;;;;3.80;3.40;;;24.90;73.10;;;;;;6156208;23;20074;-92
2021/06/19 06:12:10;;;;;;;4.38;3.50;;;25.00;73.10;;;;;;6182784;23;20002;-93
2021/06/19 06:14:36;;;;;;;3.75;3.30;;;25.00;72.80;;;;;;6156327;23;20001;-93
2021/06/19 06:17:03;;;;;;;5.18;3.42;;;25.10;72.70;;;;;;6157183;23;20008;-92
2021/06/19 06:19:29;;;;;;;9.55;3.67;;;25.10;72.50;;;;;;6155883;23;20429;-92
2021/06/19 06:21:55;;;;;;;5.57;3.65;;;25.10;72.60;;;;;;6156451;23;20012;-92
2021/06/19 06:24:20;;;;;;;3.72;3.35;;;25.20;72.40;;;;;;6155831;23;20428;-92
2021/06/19 06:26:46;;;;;;;3.92;3.53;;;25.20;72.30;;;;;;6156128;23;20027;-92
2021/06/19 06:29:13;;;;;;;4.63;3.47;;;25.20;72.20;;;;;;6156585;23;20005;-92
2021/06/19 06:31:39;;;;;;;3.42;2.97;;;25.20;72.10;;;;;;6156036;23;20001;-92
2021/06/19 06:34:04;;;;;;;4.03;3.63;;;25.20;72.70;;;;;;6182558;22;20472;-92
2021/06/19 06:36:36;;;;;;;3.42;3.13;;;25.30;72.20;;;;;;6156022;23;20493;-92
2021/06/19 06:39:15;;;;;;;3.72;3.40;;;25.30;72.20;;;;;;6155739;23;20024;-92
2021/06/19 06:41:40;;;;;;;3.65;3.33;;;25.40;72.20;;;;;;6182240;23;20059;-93
2021/06/19 06:44:07;;;;;;;6.50;4.28;;;25.50;72.00;;;;;;6155964;23;20420;-93
2021/06/19 06:46:32;;;;;;;4.03;3.63;;;25.50;71.50;;;;;;6156816;23;20008;-93
2021/06/19 06:48:58;;;;;;;3.97;3.58;;;25.40;71.80;;;;;;6155529;23;20329;-92
2021/06/19 06:51:24;;;;;;;4.20;3.90;;;25.40;72.10;;;;;;6155798;23;20004;-92
2021/06/19 06:54:02;;;;;;;3.60;3.30;;;25.40;72.00;;;;;;6155926;23;19997;-93
2021/06/19 06:56:28;;;;;;;3.80;3.45;;;25.50;71.70;;;;;;6131456;23;20024;-94
2021/06/19 06:58:53;;;;;;;4.40;4.00;;;25.60;71.50;;;;;;6156618;23;20017;-94
2021/06/19 07:01:19;;;;;;;4.05;3.67;;;25.70;71.20;;;;;;6156250;23;20001;-94
2021/06/19 07:03:45;;;;;;;3.60;3.30;;;25.80;71.00;;;;;;6182370;23;20068;-94
2021/06/19 07:06:10;;;;;;;4.20;3.80;;;25.90;70.90;;;;;;6156712;23;20011;-94
2021/06/19 07:08:36;;;;;;;4.00;3.70;;;25.90;70.60;;;;;;6184292;23;20073;-93
2021/06/19 07:11:02;;;;;;;4.78;3.40;;;26.00;70.40;;;;;;6157820;23;20008;-93
2021/06/19 07:13:28;;;;;;;5.82;3.92;;;26.00;70.40;;;;;;6158010;23;20012;-93
2021/06/19 07:15:53;;;;;;;4.20;3.80;;;26.00;70.30;;;;;;6157531;23;20001;-93
2021/06/19 07:18:28;;;;;;;3.88;3.58;;;26.10;70.10;;;;;;6157748;23;20418;-92
2021/06/19 07:20:57;;;;;;;3.92;3.63;;;26.00;69.70;;;;;;6157700;23;20005;-94
2021/06/19 07:23:25;;;;;;;4.15;3.58;;;26.00;69.80;;;;;;6156393;23;20076;-93
2021/06/19 07:25:52;;;;;;;3.80;3.50;;;26.00;70.00;;;;;;6157105;23;20012;-93
2021/06/19 07:28:18;;;;;;;3.83;3.45;;;26.10;70.10;;;;;;6183422;22;20447;-92
2021/06/19 07:30:43;;;;;;;4.43;3.47;;;26.20;70.10;;;;;;6157276;23;20093;-92
2021/06/19 07:33:09;;;;;;;4.15;3.75;;;26.30;69.60;;;;;;6157791;23;20444;-93
2021/06/19 07:35:35;;;;;;;3.95;3.55;;;26.40;69.30;;;;;;6157671;23;20091;-93
2021/06/19 07:38:00;;;;;;;3.78;3.05;;;26.60;69.10;;;;;;6156899;23;20019;-93
2021/06/19 07:40:27;;;;;;;3.70;3.30;;;26.60;68.50;;;;;;6157355;23;20096;-94
2021/06/19 07:42:52;;;;;;;3.50;3.20;;;26.70;67.90;;;;;;6157158;23;20001;-94
2021/06/19 07:45:18;;;;;;;3.53;3.22;;;26.80;67.90;;;;;;6157074;23;20463;-94
2021/06/19 07:47:44;;;;;;;3.42;3.13;;;26.80;67.60;;;;;;6157058;23;20084;-94
2021/06/19 07:50:10;;;;;;;4.03;3.45;;;26.80;67.50;;;;;;6157164;23;20005;-94
2021/06/19 07:52:36;;;;;;;4.30;3.83;;;26.80;68.40;;;;;;6157051;23;20115;-94
2021/06/19 07:55:02;;;;;;;3.90;3.50;;;26.90;67.70;;;;;;6156949;23;20025;-94
2021/06/19 07:57:31;;;;;;;3.95;3.53;;;27.00;67.40;;;;;;6157514;22;20002;-93
2021/06/19 07:59:57;;;;;;;4.03;3.65;;;27.10;67.10;;;;;;6157517;23;20033;-94
2021/06/19 08:02:22;;;;;;;3.67;3.38;;;27.10;66.80;;;;;;6157063;23;20092;-94
2021/06/19 08:04:48;;;;;;;4.32;3.40;;;27.10;66.90;;;;;;6157161;23;20001;-93
2021/06/19 08:07:14;;;;;;;3.88;3.58;;;27.10;66.70;;;;;;6184218;23;19997;-92
2021/06/19 08:09:46;;;;;;;4.60;3.97;;;27.20;66.80;;;;;;6156274;23;20050;-92
2021/06/19 08:12:11;;;;;;;4.55;3.60;;;27.10;66.40;;;;;;6185673;23;20000;-92
2021/06/19 08:14:37;;;;;;;5.28;4.05;;;27.10;66.80;;;;;;6157231;23;20005;-93
2021/06/19 08:17:08;;;;;;;5.30;3.85;;;27.10;66.90;;;;;;6157165;23;20081;-93
2021/06/19 08:19:34;;;;;;;4.40;3.70;;;27.20;66.90;;;;;;6156771;23;20001;-93
2021/06/19 08:22:02;;;;;;;4.85;3.80;;;27.20;67.10;;;;;;6156587;23;20074;-93
2021/06/19 08:24:27;;;;;;;8.02;3.58;;;27.20;66.80;;;;;;6156781;22;20021;-94
2021/06/19 08:26:53;;;;;;;4.40;4.00;;;27.20;66.70;;;;;;6156804;23;20008;-93
2021/06/19 08:29:19;;;;;;;3.95;3.55;;;27.10;67.00;;;;;;6156743;23;20084;-93
2021/06/19 08:31:44;;;;;;;4.60;3.78;;;27.00;67.30;;;;;;6156496;23;20062;-93
2021/06/19 08:34:10;;;;;;;4.10;3.70;;;27.10;67.70;;;;;;6182100;23;20002;-93
2021/06/19 08:36:36;;;;;;;5.30;3.72;;;27.20;67.60;;;;;;6156408;23;20420;-93
2021/06/19 08:39:03;;;;;;;4.28;3.88;;;27.20;67.40;;;;;;6156859;23;20445;-93
2021/06/19 08:41:29;;;;;;;3.85;3.55;;;27.40;67.30;;;;;;6183386;22;20427;-93
2021/06/19 08:43:54;;;;;;;4.13;3.72;;;27.50;67.30;;;;;;6157155;23;20001;-93
2021/06/19 08:46:22;;;;;;;4.18;3.88;;;27.70;67.20;;;;;;6156134;23;20084;-93
2021/06/19 08:48:52;;;;;;;5.65;4.20;;;27.80;66.90;;;;;;6156244;23;20475;-93
2021/06/19 08:51:19;;;;;;;5.68;4.10;;;27.90;66.30;;;;;;6156442;22;20001;-92
2021/06/19 08:53:46;;;;;;;4.43;4.03;;;28.00;66.00;;;;;;6158508;22;20146;-93
2021/06/19 08:56:14;;;;;;;3.95;3.60;;;28.00;65.40;;;;;;6182821;23;20074;-92
2021/06/19 08:58:41;;;;;;;3.92;3.60;;;28.10;65.40;;;;;;6156417;22;20337;-92
2021/06/19 09:01:29;;;;;;;4.30;3.90;;;28.10;65.40;;;;;;6183384;23;19998;-93
2021/06/19 09:04:16;;;;;;;5.80;3.70;;;28.10;64.90;;;;;;6155429;22;20076;-94
2021/06/19 09:07:31;;;;;;;4.45;3.67;;;28.20;65.20;;;;;;6157789;23;20005;-93
2021/06/19 09:10:21;;;;;;;4.88;4.22;;;28.30;64.60;;;;;;6159938;23;20008;-92
2021/06/19 09:20:33;;;;;;;4.10;3.72;;;28.50;64.30;;;;;;6116146;23;21419;-94
2021/06/19 09:26:24;;;;;;;9.00;4.35;;;28.30;64.80;;;;;;6103683;23;20003;-95
2021/06/19 09:29:17;;;;;;;;;;;;;;;;;;;;;
2021/06/19 09:32:16;;;;;;;4.78;4.28;;;28.30;64.60;;;;;;6104475;23;20022;-95
2021/06/19 09:39:08;;;;;;;6.90;5.00;;;28.30;64.70;;;;;;6069481;23;20022;-94
2021/06/19 10:24:45;;;;;;;4.55;2.83;;;28.70;64.00;;;;;;5990342;24;20376;-95
2021/06/19 10:28:16;;;;;;;;;;;;;;;;;;;;;
2021/06/19 10:45:41;;;;;;;;;;;;;;;;;;;;;
2021/06/19 11:33:44;;;;;;;;;;;;;;;;;;;;;
2021/06/19 12:11:38;;;;;;;2.50;2.30;;;30.40;55.50;;;;;;5942999;23;20063;-95
2021/06/19 12:21:19;;;;;;;5.60;2.53;;;29.40;57.50;;;;;;5935979;23;20028;-95
2021/06/19 12:31:09;;;;;;;4.18;2.05;;;28.20;60.10;;;;;;5905287;24;20024;-93
2021/06/19 12:33:55;;;;;;;1.90;1.80;;;27.80;60.90;;;;;;5853504;24;20039;-94
2021/06/19 12:43:56;;;;;;;2.20;2.00;;;27.70;61.40;;;;;;6017050;23;20025;-94
2021/06/19 12:46:33;;;;;;;2.30;2.10;;;27.80;61.10;;;;;;6130874;23;20025;-95
2021/06/19 12:49:41;;;;;;;;;;;;;;;;;;;;;
2021/06/19 12:56:08;;;;;;;5.22;4.72;;;28.10;60.30;;;;;;6121779;23;20038;-94
2021/06/19 13:17:38;;;;;;;3.20;2.60;;;28.40;56.80;;;;;;6081832;23;20058;-94
2021/06/19 13:31:50;;;;;;;3.35;2.40;;;30.90;52.30;;;;;;5997254;23;20008;-95
2021/06/19 13:39:22;;;;;;;;;;;;;;;;;;;;;
2021/06/19 13:45:35;;;;;;;2.60;2.40;;;30.70;53.30;;;;;;6165641;22;20037;-95
2021/06/19 14:04:09;;;;;;;6.05;2.85;;;29.60;57.80;;;;;;6201481;22;20036;-95
2021/06/19 14:44:06;;;;;;;4.47;2.40;;;38.20;46.10;;;;;;6211418;23;20512;-93
2021/06/19 14:46:34;;;;;;;2.15;1.98;;;38.60;46.40;;;;;;6212890;23;20016;-92
2021/06/19 14:49:03;;;;;;;4.85;2.10;;;38.90;45.50;;;;;;6186859;22;20008;-93
2021/06/19 14:51:31;;;;;;;1.88;1.77;;;39.10;44.70;;;;;;6187091;22;20013;-94
2021/06/19 14:54:00;;;;;;;2.35;1.98;;;39.30;44.20;;;;;;6186974;23;20070;-94
2021/06/19 14:56:26;;;;;;;2.40;2.20;;;39.40;43.40;;;;;;6186780;23;20009;-93
2021/06/19 14:58:54;;;;;;;4.18;2.38;;;39.40;42.80;;;;;;6186398;23;20013;-92
2021/06/19 15:01:20;;;;;;;2.80;2.00;;;39.30;42.40;;;;;;6161223;23;20009;-93
2021/06/19 15:03:46;;;;;;;6.00;2.50;;;39.20;42.40;;;;;;6186492;23;20008;-93
2021/06/19 15:06:13;;;;;;;1.98;1.80;;;39.10;42.30;;;;;;6186533;23;20001;-94
2021/06/19 15:08:39;;;;;;;2.03;1.92;;;39.20;42.40;;;;;;6186477;23;20008;-94
2021/06/19 15:11:04;;;;;;;1.95;1.85;;;39.30;42.50;;;;;;6186813;23;20027;-93
2021/06/19 15:13:30;;;;;;;4.63;2.13;;;39.40;42.10;;;;;;6162187;23;20008;-93
2021/06/19 15:15:58;;;;;;;2.63;2.00;;;39.40;41.70;;;;;;6186368;22;20008;-93
2021/06/19 15:18:26;;;;;;;2.10;1.90;;;39.30;41.80;;;;;;6187532;22;20028;-93
2021/06/19 15:20:54;;;;;;;2.72;2.17;;;39.30;42.00;;;;;;6186874;22;20001;-93
2021/06/19 15:23:20;;;;;;;2.03;1.90;;;39.20;41.70;;;;;;6185879;23;20001;-93
2021/06/19 15:25:46;;;;;;;5.95;1.90;;;39.30;41.90;;;;;;6186661;23;20001;-93
2021/06/19 15:28:15;;;;;;;2.75;2.05;;;39.30;41.80;;;;;;6185751;23;20016;-93
2021/06/19 15:30:41;;;;;;;2.10;1.95;;;39.20;41.70;;;;;;6186267;23;20001;-93
2021/06/19 15:33:07;;;;;;;4.13;2.40;;;39.10;41.60;;;;;;6186456;23;20008;-92
2021/06/19 15:35:32;;;;;;;2.53;2.30;;;39.00;41.70;;;;;;6184938;22;20005;-93
2021/06/19 15:37:58;;;;;;;3.70;2.15;;;38.80;41.70;;;;;;6184973;22;20420;-92
2021/06/19 15:40:24;;;;;;;3.60;2.25;;;38.60;41.90;;;;;;6185959;23;20005;-92
2021/06/19 15:42:50;;;;;;;2.63;1.92;;;38.10;41.90;;;;;;6185589;22;20020;-92
2021/06/19 15:45:16;;;;;;;2.30;2.10;;;37.20;42.40;;;;;;6185044;23;20051;-92
2021/06/19 15:47:42;;;;;;;2.03;1.80;;;36.40;43.40;;;;;;6186335;22;20005;-92
2021/06/19 15:50:08;;;;;;;2.25;2.05;;;35.60;44.30;;;;;;6212548;23;20058;-92
2021/06/19 15:52:36;;;;;;;1.85;1.75;;;34.80;45.20;;;;;;6185883;22;20073;-93
2021/06/19 15:55:04;;;;;;;2.25;1.80;;;34.20;46.30;;;;;;6186045;23;20323;-91
2021/06/19 15:57:30;;;;;;;2.58;2.38;;;33.60;47.10;;;;;;6185241;23;20001;-91
2021/06/19 15:59:55;;;;;;;3.53;2.17;;;33.00;48.10;;;;;;6159516;23;20102;-91
2021/06/19 16:02:21;;;;;;;2.63;2.42;;;32.60;49.00;;;;;;6184471;23;20076;-91
2021/06/19 16:04:49;;;;;;;2.17;2.00;;;32.20;49.80;;;;;;6186720;23;20015;-90
2021/06/19 16:07:15;;;;;;;3.40;2.58;;;31.80;50.50;;;;;;6185067;22;20309;-91
2021/06/19 16:09:41;;;;;;;2.58;2.25;;;31.50;51.30;;;;;;6160835;23;20108;-91
2021/06/19 16:12:07;;;;;;;1.95;1.85;;;31.20;51.90;;;;;;6186163;22;20061;-91
2021/06/19 16:14:34;;;;;;;2.35;2.15;;;30.90;52.40;;;;;;6185979;22;20004;-90
2021/06/19 16:17:00;;;;;;;2.45;1.90;;;30.70;52.90;;;;;;6211026;23;20308;-91
2021/06/19 16:19:26;;;;;;;2.47;2.28;;;30.40;53.50;;;;;;6185567;23;20005;-91
2021/06/19 16:21:52;;;;;;;2.50;2.30;;;30.20;54.40;;;;;;6185898;22;20066;-91
2021/06/19 16:24:18;;;;;;;2.13;2.00;;;30.00;55.00;;;;;;6185310;23;20513;-90
2021/06/19 16:26:45;;;;;;;3.10;2.05;;;29.80;55.20;;;;;;6184900;23;20320;-89
2021/06/19 16:29:11;;;;;;;5.30;2.75;;;29.70;55.70;;;;;;6185133;22;20420;-91
2021/06/19 16:31:37;;;;;;;2.25;2.03;;;29.50;56.40;;;;;;6184903;23;20015;-90
2021/06/19 16:34:02;;;;;;;2.45;2.25;;;29.30;56.50;;;;;;6186683;22;20000;-92
2021/06/19 16:36:28;;;;;;;4.57;2.92;;;29.30;57.10;;;;;;6190305;23;20004;-93
2021/06/19 16:39:25;;;;;;;4.20;2.03;;;29.10;57.60;;;;;;6193221;22;20064;-95
2021/06/19 16:41:51;;;;;;;2.38;2.10;;;28.90;58.20;;;;;;6193216;23;20009;-94
2021/06/19 16:44:17;;;;;;;4.38;2.42;;;28.80;58.30;;;;;;6183184;23;20043;-94
2021/06/19 16:46:58;;;;;;;4.45;2.53;;;28.70;58.60;;;;;;6186024;23;20297;-94
2021/06/19 16:49:24;;;;;;;2.47;2.10;;;28.60;59.10;;;;;;6183520;23;20017;-90
2021/06/19 16:51:50;;;;;;;5.32;2.83;;;28.50;59.20;;;;;;6179594;23;19997;-90
2021/06/19 16:54:17;;;;;;;4.03;2.38;;;28.40;59.90;;;;;;6180081;23;20009;-90
2021/06/19 16:56:43;;;;;;;2.30;2.10;;;28.30;59.70;;;;;;6180947;23;20000;-91
2021/06/19 16:59:09;;;;;;;3.63;2.45;;;28.20;59.70;;;;;;6179223;23;20099;-92
2021/06/19 17:01:34;;;;;;;2.22;2.03;;;28.20;59.70;;;;;;6179210;23;20040;-91
2021/06/19 17:04:00;;;;;;;2.88;2.58;;;28.10;59.70;;;;;;6179887;23;20005;-90
2021/06/19 17:06:26;;;;;;;3.30;2.13;;;28.10;59.60;;;;;;6155233;23;20024;-91
2021/06/19 17:08:52;;;;;;;4.22;2.30;;;28.00;59.80;;;;;;6181032;23;20092;-91
2021/06/19 17:11:18;;;;;;;3.65;2.30;;;27.90;59.70;;;;;;6179945;23;20059;-91
2021/06/19 17:13:43;;;;;;;2.38;1.90;;;27.80;59.90;;;;;;6179350;23;20020;-90
2021/06/19 17:16:11;;;;;;;4.05;2.22;;;27.70;60.00;;;;;;6180043;23;20035;-91
2021/06/19 17:18:38;;;;;;;3.05;2.65;;;27.60;60.10;;;;;;6179760;23;20016;-91
2021/06/19 17:21:05;;;;;;;2.30;1.92;;;27.60;60.40;;;;;;6180157;23;20005;-92
2021/06/19 17:23:31;;;;;;;3.05;2.08;;;27.50;60.50;;;;;;6179376;23;20058;-92
2021/06/19 17:25:58;;;;;;;6.50;2.03;;;27.40;60.80;;;;;;6181171;23;20084;-89
2021/06/19 17:28:27;;;;;;;1.70;1.60;;;27.30;61.10;;;;;;6179618;23;20092;-92
2021/06/19 17:30:53;;;;;;;4.28;1.83;;;27.20;61.30;;;;;;6180763;23;20001;-92